createdAt,value
2018-07-16T00:01:06.133Z,5.70
2018-07-16T00:03:36.579Z,6.03
2018-07-16T00:06:07.022Z,7.80
2018-07-16T00:08:37.334Z,6.30
2018-07-16T00:11:08.048Z,6.27
2018-07-16T00:13:38.569Z,7.80
2018-07-16T00:16:08.924Z,8.80
2018-07-16T00:18:39.657Z,9.43
2018-07-16T00:21:09.992Z,9.27
2018-07-16T00:23:40.374Z,8.73
2018-07-16T00:26:10.956Z,8.87
2018-07-16T00:28:41.286Z,10.10
2018-07-16T00:31:11.960Z,10.10
2018-07-16T00:33:42.735Z,8.77
2018-07-16T00:36:12.954Z,9.60
2018-07-16T00:38:43.327Z,8.90
2018-07-16T00:41:13.928Z,9.77
2018-07-16T00:43:44.295Z,7.17
2018-07-16T00:46:14.735Z,8.20
2018-07-16T00:48:45.306Z,7.53
2018-07-16T00:51:15.689Z,8.37
2018-07-16T00:53:46.017Z,7.70
2018-07-16T00:56:16.776Z,8.53
2018-07-16T00:58:47.087Z,9.23
2018-07-16T01:01:17.405Z,10.37
2018-07-16T01:03:47.831Z,10.60
2018-07-16T01:06:18.102Z,11.40
2018-07-16T01:08:48.555Z,11.47
2018-07-16T01:11:19.279Z,12.03
2018-07-16T01:13:49.699Z,11.80
2018-07-16T01:16:20.219Z,8.60
2018-07-16T01:18:50.548Z,9.87
2018-07-16T01:21:20.793Z,11.03
2018-07-16T01:23:51.095Z,10.03
2018-07-16T01:26:21.544Z,11.03
2018-07-16T01:28:51.954Z,10.83
2018-07-16T01:31:22.268Z,10.90
2018-07-16T01:33:52.733Z,11.03
2018-07-16T01:36:23.194Z,10.63
2018-07-16T01:38:53.464Z,11.03
2018-07-16T01:41:23.869Z,11.70
2018-07-16T01:43:54.302Z,10.73
2018-07-16T01:46:24.797Z,12.83
2018-07-16T01:48:55.403Z,11.47
2018-07-16T01:51:25.957Z,12.20
2018-07-16T01:53:56.477Z,12.60
2018-07-16T01:56:26.835Z,11.63
2018-07-16T01:58:57.291Z,11.30
2018-07-16T02:01:28.116Z,10.40
2018-07-16T02:03:58.495Z,10.33
2018-07-16T02:06:29.212Z,11.40
2018-07-16T02:08:59.556Z,11.83
2018-07-16T02:11:29.903Z,11.47
2018-07-16T02:14:00.819Z,12.83
2018-07-16T02:16:31.110Z,14.07
2018-07-16T02:19:01.432Z,12.53
2018-07-16T02:21:32.467Z,11.37
2018-07-16T02:24:02.783Z,11.10
2018-07-16T02:26:33.057Z,11.87
2018-07-16T02:29:03.405Z,8.73
2018-07-16T02:31:33.632Z,8.60
2018-07-16T02:34:04.101Z,7.73
2018-07-16T02:36:34.635Z,7.37
2018-07-16T02:39:05.402Z,6.60
2018-07-16T02:41:35.702Z,6.10
2018-07-16T02:44:06.132Z,6.77
2018-07-16T02:46:36.641Z,5.93
2018-07-16T02:49:07.223Z,5.97
2018-07-16T02:51:37.546Z,6.50
2018-07-16T02:54:08.139Z,8.43
2018-07-16T02:56:38.595Z,8.80
2018-07-16T02:59:09.141Z,8.67
2018-07-16T03:01:39.491Z,8.13
2018-07-16T03:04:09.791Z,7.00
2018-07-16T03:06:40.150Z,7.77
2018-07-16T03:09:10.474Z,6.80
2018-07-16T03:11:40.903Z,6.93
2018-07-16T03:14:11.498Z,7.27
2018-07-16T03:16:41.792Z,6.87
2018-07-16T03:19:12.382Z,7.33
2018-07-16T03:21:42.650Z,7.50
2018-07-16T03:24:13.449Z,9.60
2018-07-16T03:26:43.908Z,7.93
2018-07-16T03:29:14.330Z,9.37
2018-07-16T03:31:44.687Z,8.57
2018-07-16T03:34:15.012Z,9.57
2018-07-16T03:36:45.407Z,10.13
2018-07-16T03:39:15.653Z,8.13
2018-07-16T03:41:45.934Z,6.70
2018-07-16T03:44:16.393Z,7.40
2018-07-16T03:46:46.700Z,8.60
2018-07-16T03:49:17.079Z,9.13
2018-07-16T03:51:47.542Z,9.07
2018-07-16T03:54:17.866Z,8.63
2018-07-16T03:56:48.512Z,9.33
2018-07-16T03:59:19.161Z,9.47
2018-07-16T04:01:49.467Z,8.33
2018-07-16T04:04:20.094Z,7.87
2018-07-16T04:06:50.293Z,7.67
2018-07-16T04:09:20.837Z,7.70
2018-07-16T04:11:51.216Z,7.23
2018-07-16T04:14:21.978Z,6.20
2018-07-16T04:16:52.265Z,8.10
2018-07-16T04:19:22.870Z,6.60
2018-07-16T04:21:53.363Z,6.83
2018-07-16T04:24:23.856Z,6.57
2018-07-16T04:26:54.238Z,8.60
2018-07-16T04:29:24.795Z,8.20
2018-07-16T04:31:55.444Z,8.07
2018-07-16T04:34:25.795Z,8.23
2018-07-16T04:36:56.360Z,7.67
2018-07-16T04:39:26.752Z,6.77
2018-07-16T04:41:57.177Z,7.40
2018-07-16T04:44:27.749Z,7.77
2018-07-16T04:46:58.083Z,7.83
2018-07-16T04:49:28.484Z,7.47
2018-07-16T04:51:58.692Z,6.77
2018-07-16T04:54:29.062Z,7.57
2018-07-16T04:56:59.650Z,7.53
2018-07-16T04:59:29.912Z,6.70
2018-07-16T05:02:00.324Z,6.40
2018-07-16T05:04:30.626Z,6.50
2018-07-16T05:07:00.983Z,6.30
2018-07-16T05:09:31.314Z,4.50
2018-07-16T05:12:01.555Z,5.70
2018-07-16T05:14:32.085Z,4.60
2018-07-16T05:17:02.441Z,4.40
2018-07-16T05:19:32.739Z,4.90
2018-07-16T05:22:02.994Z,4.60
2018-07-16T05:24:33.432Z,4.40
2018-07-16T05:27:03.690Z,3.30
2018-07-16T05:30:05.777Z,3.40
2018-07-16T05:32:36.207Z,3.30
2018-07-16T05:35:06.378Z,3.27
2018-07-16T05:37:36.769Z,3.40
2018-07-16T05:40:07.240Z,3.30
2018-07-16T05:42:37.819Z,4.03
2018-07-16T05:45:08.040Z,3.40
2018-07-16T05:47:41.872Z,3.47
2018-07-16T05:50:12.391Z,3.50
2018-07-16T05:52:42.780Z,3.23
2018-07-16T05:55:13.158Z,3.47
2018-07-16T05:57:43.488Z,3.77
2018-07-16T06:00:14.187Z,3.50
2018-07-16T06:02:44.342Z,3.87
2018-07-16T06:05:14.869Z,4.13
2018-07-16T06:07:45.255Z,4.80
2018-07-16T06:10:15.776Z,4.70
2018-07-16T06:12:46.149Z,4.23
2018-07-16T06:15:16.519Z,4.17
2018-07-16T06:17:46.930Z,4.10
2018-07-16T06:20:17.266Z,3.60
2018-07-16T06:22:48.345Z,4.00
2018-07-16T06:25:18.731Z,4.43
2018-07-16T06:27:49.181Z,4.40
2018-07-16T06:30:19.804Z,5.33
2018-07-16T06:32:50.166Z,4.63
2018-07-16T06:35:20.710Z,4.80
2018-07-16T06:37:51.078Z,4.57
2018-07-16T06:40:21.732Z,4.83
2018-07-16T06:42:52.140Z,4.33
2018-07-16T06:45:22.646Z,4.77
2018-07-16T06:47:53.049Z,4.97
2018-07-16T06:50:23.573Z,4.70
2018-07-16T06:52:54.043Z,5.10
2018-07-16T06:55:24.467Z,4.50
2018-07-16T06:57:55.019Z,5.30
2018-07-16T07:00:26.135Z,4.50
2018-07-16T07:02:56.438Z,4.60
2018-07-16T07:05:26.717Z,4.60
2018-07-16T07:07:57.115Z,4.33
2018-07-16T07:10:27.591Z,4.80
2018-07-16T07:12:58.102Z,5.20
2018-07-16T07:15:28.315Z,4.37
2018-07-16T07:17:58.749Z,4.60
2018-07-16T07:20:29.044Z,4.17
2018-07-16T07:22:59.399Z,3.80
2018-07-16T07:25:29.638Z,4.10
2018-07-16T07:28:00.175Z,4.57
2018-07-16T07:30:30.449Z,4.37
2018-07-16T07:33:00.894Z,4.17
2018-07-16T07:35:31.623Z,4.50
2018-07-16T07:38:01.912Z,4.30
2018-07-16T07:40:32.629Z,4.10
2018-07-16T07:43:03.037Z,4.20
2018-07-16T07:45:33.580Z,4.07
2018-07-16T07:48:04.420Z,3.97
2018-07-16T07:50:34.593Z,3.97
2018-07-16T07:53:05.073Z,4.20
2018-07-16T07:55:35.760Z,4.30
2018-07-16T07:58:06.199Z,4.17
2018-07-16T08:00:36.521Z,4.03
2018-07-16T08:03:07.031Z,5.10
2018-07-16T08:05:37.524Z,4.70
2018-07-16T08:08:07.882Z,5.40
2018-07-16T08:10:38.322Z,5.00
2018-07-16T08:13:08.731Z,5.00
2018-07-16T08:15:39.683Z,4.37
2018-07-16T08:18:10.248Z,3.57
2018-07-16T08:20:41.349Z,4.33
2018-07-16T08:23:11.995Z,4.40
2018-07-16T08:25:42.620Z,4.17
2018-07-16T08:28:13.138Z,4.53
2018-07-16T08:30:43.494Z,4.10
2018-07-16T08:33:13.956Z,4.43
2018-07-16T08:35:44.709Z,4.27
2018-07-16T08:38:15.032Z,4.97
2018-07-16T08:40:45.447Z,4.43
2018-07-16T08:43:15.775Z,4.90
2018-07-16T08:45:47.072Z,4.50
2018-07-16T08:48:17.670Z,5.43
2018-07-16T08:50:47.972Z,5.70
2018-07-16T08:53:18.328Z,4.77
2018-07-16T08:55:48.644Z,5.20
2018-07-16T08:58:18.981Z,4.73
2018-07-16T09:00:49.583Z,5.67
2018-07-16T09:03:20.015Z,5.47
2018-07-16T09:05:56.440Z,4.93
2018-07-16T09:08:26.968Z,4.60
2018-07-16T09:10:57.631Z,5.10
2018-07-16T09:13:28.189Z,4.87
2018-07-16T09:15:58.628Z,5.30
2018-07-16T09:18:28.975Z,5.50
2018-07-16T09:20:59.593Z,5.30
2018-07-16T09:23:30.069Z,5.07
2018-07-16T09:26:00.403Z,5.10
2018-07-16T09:28:30.701Z,5.20
2018-07-16T09:31:01.508Z,5.63
2018-07-16T09:33:31.845Z,6.53
2018-07-16T09:36:02.367Z,5.37
2018-07-16T09:38:32.865Z,6.20
2018-07-16T09:41:03.403Z,5.10
2018-07-16T09:43:33.870Z,5.20
2018-07-16T09:46:04.319Z,5.07
2018-07-16T09:48:34.855Z,5.37
2018-07-16T09:51:05.304Z,5.60
2018-07-16T09:53:35.778Z,5.93
2018-07-16T09:56:06.388Z,5.20
2018-07-16T09:58:36.842Z,5.37
2018-07-16T10:01:13.437Z,6.03
2018-07-16T10:03:43.778Z,6.00
2018-07-16T10:06:14.454Z,6.30
2018-07-16T10:08:45.027Z,6.13
2018-07-16T10:11:15.322Z,5.97
2018-07-16T10:13:45.933Z,5.93
2018-07-16T10:16:16.249Z,5.87
2018-07-16T10:18:46.819Z,5.60
2018-07-16T10:21:17.204Z,5.93
2018-07-16T10:23:48.931Z,6.50
2018-07-16T10:26:19.290Z,5.80
2018-07-16T10:28:49.888Z,5.60
2018-07-16T10:31:20.354Z,5.77
2018-07-16T10:33:51.137Z,6.17
2018-07-16T10:36:21.624Z,5.50
2018-07-16T10:38:51.987Z,5.57
2018-07-16T10:41:22.351Z,5.77
2018-07-16T10:43:52.729Z,5.50
2018-07-16T10:46:23.415Z,5.70
2018-07-16T10:48:53.746Z,5.73
2018-07-16T10:51:24.220Z,6.23
2018-07-16T10:53:54.551Z,5.40
2018-07-16T10:56:25.028Z,5.53
2018-07-16T10:58:55.543Z,5.77
2018-07-16T11:01:25.974Z,6.20
2018-07-16T11:03:56.644Z,6.40
2018-07-16T11:06:27.119Z,6.00
2018-07-16T11:08:57.545Z,5.70
2018-07-16T11:11:28.160Z,6.13
2018-07-16T11:13:58.739Z,5.77
2018-07-16T11:16:29.187Z,6.70
2018-07-16T11:18:59.565Z,6.37
2018-07-16T11:21:30.123Z,6.90
2018-07-16T11:24:00.530Z,7.07
2018-07-16T11:26:31.207Z,6.13
2018-07-16T11:29:01.686Z,6.00
2018-07-16T11:31:32.162Z,5.17
2018-07-16T11:34:02.636Z,5.70
2018-07-16T11:36:33.019Z,5.63
2018-07-16T11:39:03.692Z,5.90
2018-07-16T11:41:34.076Z,5.90
2018-07-16T11:44:06.431Z,6.57
2018-07-16T11:46:37.162Z,5.93
2018-07-16T11:49:07.660Z,7.20
2018-07-16T11:51:38.116Z,7.57
2018-07-16T11:54:08.649Z,6.80
2018-07-16T11:56:39.010Z,6.17
2018-07-16T11:59:09.588Z,6.90
2018-07-16T12:01:40.002Z,6.20
2018-07-16T12:04:10.858Z,6.63
2018-07-16T12:06:41.282Z,6.43
2018-07-16T12:09:11.743Z,6.57
2018-07-16T12:11:42.108Z,6.70
2018-07-16T12:14:12.614Z,6.00
2018-07-16T12:16:42.947Z,6.67
2018-07-16T12:19:13.368Z,6.63
2018-07-16T12:21:43.818Z,6.47
2018-07-16T12:24:14.278Z,6.57
2018-07-16T12:26:45.024Z,5.87
2018-07-16T12:29:15.497Z,6.57
2018-07-16T12:31:45.841Z,6.40
2018-07-16T12:34:16.435Z,6.83
2018-07-16T12:36:46.866Z,8.10
2018-07-16T12:39:17.271Z,6.97
2018-07-16T12:41:47.747Z,6.43
2018-07-16T12:44:18.362Z,6.60
2018-07-16T12:46:49.097Z,6.47
2018-07-16T12:49:19.435Z,6.93
2018-07-16T12:51:50.024Z,6.10
2018-07-16T12:54:20.439Z,6.10
2018-07-16T12:56:51.016Z,7.17
2018-07-16T12:59:21.562Z,6.00
2018-07-16T13:01:51.903Z,5.67
2018-07-16T13:04:22.323Z,6.47
2018-07-16T13:06:52.732Z,6.53
2018-07-16T13:09:24.204Z,5.90
2018-07-16T13:11:54.745Z,5.90
2018-07-16T13:14:25.120Z,6.97
2018-07-16T13:16:55.766Z,6.53
2018-07-16T13:19:26.168Z,6.90
2018-07-16T13:21:56.778Z,6.50
2018-07-16T13:24:27.346Z,7.43
2018-07-16T13:26:57.763Z,6.20
2018-07-16T13:29:28.378Z,7.13
2018-07-16T13:31:58.878Z,7.30
2018-07-16T13:34:29.240Z,7.50
2018-07-16T13:36:59.788Z,6.40
2018-07-16T13:39:30.250Z,6.60
2018-07-16T13:42:00.618Z,6.73
2018-07-16T13:44:31.056Z,6.57
2018-07-16T13:47:01.601Z,6.33
2018-07-16T13:49:32.234Z,6.37
2018-07-16T13:52:02.753Z,6.20
2018-07-16T13:54:33.071Z,6.27
2018-07-16T13:57:03.472Z,6.83
2018-07-16T13:59:33.962Z,6.37
2018-07-16T14:02:04.337Z,6.80
2018-07-16T14:04:34.691Z,6.60
2018-07-16T14:07:04.926Z,6.93
2018-07-16T14:09:35.239Z,6.20
2018-07-16T14:12:05.695Z,6.47
2018-07-16T14:14:36.077Z,6.10
2018-07-16T14:17:06.593Z,6.23
2018-07-16T14:19:37.031Z,7.53
2018-07-16T14:22:08.330Z,5.70
2018-07-16T14:24:38.750Z,6.57
2018-07-16T14:27:09.269Z,7.33
2018-07-16T14:29:39.627Z,6.13
2018-07-16T14:32:10.091Z,6.50
2018-07-16T14:34:40.419Z,6.13
2018-07-16T14:37:10.928Z,6.53
2018-07-16T14:39:41.239Z,6.13
2018-07-16T14:42:11.660Z,6.57
2018-07-16T14:44:42.085Z,6.80
2018-07-16T14:47:12.359Z,6.67
2018-07-16T14:49:42.787Z,5.87
2018-07-16T14:52:13.293Z,6.13
2018-07-16T14:54:43.903Z,7.13
2018-07-16T14:57:14.355Z,6.10
2018-07-16T14:59:45.112Z,6.13
2018-07-16T15:02:15.347Z,6.70
2018-07-16T15:04:45.965Z,8.93
2018-07-16T15:07:16.516Z,5.87
2018-07-16T15:09:46.798Z,5.90
2018-07-16T15:12:17.072Z,5.67
2018-07-16T15:14:47.415Z,5.90
2018-07-16T15:17:17.805Z,5.63
2018-07-16T15:19:48.096Z,5.50
2018-07-16T15:22:18.576Z,6.10
2018-07-16T15:24:48.964Z,6.33
2018-07-16T15:27:19.281Z,6.53
2018-07-16T15:29:49.675Z,8.53
2018-07-16T15:32:20.049Z,6.73
2018-07-16T15:34:50.399Z,5.93
2018-07-16T15:37:20.714Z,5.77
2018-07-16T15:39:50.899Z,5.57
2018-07-16T15:42:21.359Z,5.70
2018-07-16T15:44:51.934Z,5.73
2018-07-16T15:47:22.368Z,5.97
2018-07-16T15:49:52.788Z,6.33
2018-07-16T15:52:23.004Z,5.20
2018-07-16T15:54:53.288Z,6.10
2018-07-16T15:57:23.602Z,5.50
2018-07-16T15:59:54.123Z,5.37
2018-07-16T16:02:24.515Z,5.30
2018-07-16T16:04:55.487Z,5.37
2018-07-16T16:07:29.698Z,6.30
2018-07-16T16:10:00.400Z,5.57
2018-07-16T16:12:30.633Z,5.63
2018-07-16T16:15:00.936Z,5.93
2018-07-16T16:17:31.258Z,5.70
2018-07-16T16:20:01.745Z,6.57
2018-07-16T16:22:32.059Z,6.30
2018-07-16T16:25:02.673Z,6.10
2018-07-16T16:27:33.132Z,6.27
2018-07-16T16:30:03.601Z,6.07
2018-07-16T16:32:34.165Z,6.20
2018-07-16T16:35:04.668Z,5.87
2018-07-16T16:37:35.092Z,6.00
2018-07-16T16:40:05.711Z,6.40
2018-07-16T16:42:36.261Z,6.20
2018-07-16T16:45:06.756Z,6.03
2018-07-16T16:47:37.251Z,5.83
2018-07-16T16:50:07.730Z,6.20
2018-07-16T16:52:38.047Z,7.10
2018-07-16T16:55:08.244Z,6.07
2018-07-16T16:57:38.560Z,6.20
2018-07-16T17:00:08.926Z,6.07
2018-07-16T17:02:39.251Z,6.40
2018-07-16T17:05:09.611Z,6.13
2018-07-16T17:07:40.379Z,6.83
2018-07-16T17:10:10.865Z,6.63
2018-07-16T17:12:41.234Z,5.93
2018-07-16T17:15:11.892Z,6.67
2018-07-16T17:17:42.262Z,6.70
2018-07-16T17:20:12.581Z,6.10
2018-07-16T17:22:42.943Z,6.27
2018-07-16T17:25:13.435Z,5.83
2018-07-16T17:27:43.869Z,6.43
2018-07-16T17:30:14.357Z,6.13
2018-07-16T17:32:44.725Z,6.00
2018-07-16T17:35:15.284Z,6.20
2018-07-16T17:37:53.907Z,6.17
2018-07-16T17:40:24.316Z,7.13
2018-07-16T17:42:57.639Z,6.87
2018-07-16T17:45:27.917Z,6.67
2018-07-16T17:47:58.087Z,6.20
2018-07-16T17:50:28.739Z,8.93
2018-07-16T17:52:59.102Z,7.20
2018-07-16T17:55:29.407Z,7.30
2018-07-16T17:57:59.656Z,11.70
2018-07-16T18:00:29.908Z,9.30
2018-07-16T18:03:00.398Z,9.37
2018-07-16T18:05:30.718Z,9.00
2018-07-16T18:08:00.969Z,8.70
2018-07-16T18:10:31.454Z,8.13
2018-07-16T18:13:01.771Z,8.53
2018-07-16T18:15:32.320Z,8.37
2018-07-16T18:18:02.563Z,8.60
2018-07-16T18:20:33.072Z,8.93
2018-07-16T18:23:03.324Z,9.07
2018-07-16T18:25:33.871Z,9.13
2018-07-16T18:28:04.472Z,8.57
2018-07-16T18:30:34.812Z,10.43
2018-07-16T18:33:05.185Z,8.97
2018-07-16T18:35:35.497Z,11.50
2018-07-16T18:38:05.831Z,10.77
2018-07-16T18:40:36.250Z,9.20
2018-07-16T18:43:06.710Z,9.37
2018-07-16T18:45:37.090Z,9.17
2018-07-16T18:48:07.512Z,9.83
2018-07-16T18:50:38.003Z,10.20
2018-07-16T18:53:08.321Z,8.80
2018-07-16T18:55:38.664Z,8.00
2018-07-16T18:58:09.009Z,10.00
2018-07-16T19:00:39.397Z,11.50
2018-07-16T19:03:09.815Z,9.77
2018-07-16T19:05:40.270Z,9.27
2018-07-16T19:08:10.958Z,9.30
2018-07-16T19:10:41.251Z,9.03
2018-07-16T19:13:11.601Z,8.80
2018-07-16T19:15:42.397Z,8.47
2018-07-16T19:18:12.773Z,9.07
2018-07-16T19:20:43.363Z,8.03
2018-07-16T19:23:13.859Z,8.47
2018-07-16T19:25:44.130Z,8.27
2018-07-16T19:28:14.536Z,8.43
2018-07-16T19:30:45.009Z,7.77
2018-07-16T19:33:15.225Z,8.60
2018-07-16T19:35:45.570Z,6.97
2018-07-16T19:38:16.007Z,10.07
2018-07-16T19:40:46.224Z,20.17
2018-07-16T19:43:16.764Z,7.33
2018-07-16T19:45:47.065Z,7.33
2018-07-16T19:48:17.412Z,7.80
2018-07-16T19:50:47.707Z,8.03
2018-07-16T19:53:18.249Z,7.80
2018-07-16T19:55:48.732Z,8.90
2018-07-16T19:58:19.372Z,10.07
2018-07-16T20:00:49.786Z,16.17
2018-07-16T20:03:20.040Z,8.07
2018-07-16T20:05:50.610Z,8.20
2018-07-16T20:08:20.967Z,10.90
2018-07-16T20:10:51.313Z,8.17
2018-07-16T20:13:21.581Z,7.60
2018-07-16T20:15:52.056Z,9.00
2018-07-16T20:18:22.431Z,8.47
2018-07-16T20:20:55.947Z,8.10
2018-07-16T20:23:26.413Z,8.40
2018-07-16T20:25:57.913Z,8.07
2018-07-16T20:28:28.403Z,7.57
2018-07-16T20:30:59.047Z,7.53
2018-07-16T20:33:29.340Z,8.63
2018-07-16T20:35:59.802Z,8.83
2018-07-16T20:38:30.106Z,8.00
2018-07-16T20:41:01.426Z,8.00
2018-07-16T20:43:31.698Z,8.37
2018-07-16T20:46:02.169Z,9.93
2018-07-16T20:48:32.712Z,8.87
2018-07-16T20:51:03.042Z,9.17
2018-07-16T20:53:33.384Z,8.37
2018-07-16T20:56:03.994Z,9.97
2018-07-16T20:58:34.587Z,8.97
2018-07-16T21:01:05.093Z,9.33
2018-07-16T21:03:35.373Z,11.63
2018-07-16T21:06:05.594Z,9.47
2018-07-16T21:08:36.062Z,8.50
2018-07-16T21:11:06.292Z,9.40
2018-07-16T21:13:36.665Z,8.67
2018-07-16T21:16:07.347Z,8.47
2018-07-16T21:18:37.615Z,12.30
2018-07-16T21:21:08.040Z,9.50
2018-07-16T21:23:38.525Z,10.23
2018-07-16T21:26:09.132Z,11.00
2018-07-16T21:28:39.410Z,9.50
2018-07-16T21:31:09.774Z,10.23
2018-07-16T21:33:40.168Z,11.67
2018-07-16T21:36:10.518Z,11.03
2018-07-16T21:38:44.859Z,9.87
2018-07-16T21:41:15.540Z,8.80
2018-07-16T21:43:45.906Z,9.57
2018-07-16T21:46:16.596Z,8.83
2018-07-16T21:48:46.853Z,9.27
2018-07-16T21:51:17.169Z,8.77
2018-07-16T21:53:47.495Z,8.27
2018-07-16T21:56:17.973Z,9.40
2018-07-16T21:58:48.339Z,8.63
2018-07-16T22:01:19.003Z,8.33
2018-07-16T22:03:49.498Z,9.00
2018-07-16T22:06:19.838Z,8.70
2018-07-16T22:08:50.167Z,8.40
2018-07-16T22:11:20.683Z,8.10
2018-07-16T22:13:51.768Z,8.77
2018-07-16T22:16:22.232Z,9.67
2018-07-16T22:18:52.438Z,9.87
2018-07-16T22:21:22.684Z,9.57
2018-07-16T22:23:52.928Z,10.23
2018-07-16T22:26:23.407Z,8.30
2018-07-16T22:28:53.865Z,8.30
2018-07-16T22:31:24.184Z,8.80
2018-07-16T22:33:54.607Z,9.90
2018-07-16T22:36:24.800Z,8.60
2018-07-16T22:38:55.155Z,9.10
2018-07-16T22:41:25.456Z,10.20
2018-07-16T22:43:55.770Z,8.80
2018-07-16T22:46:26.372Z,8.67
2018-07-16T22:48:56.715Z,8.00
2018-07-16T22:51:26.918Z,7.37
2018-07-16T22:53:57.375Z,7.83
2018-07-16T22:56:27.835Z,8.50
2018-07-16T22:58:58.364Z,8.00
2018-07-16T23:01:28.754Z,8.53
2018-07-16T23:03:59.345Z,9.07
2018-07-16T23:06:29.641Z,9.07
2018-07-16T23:09:00.084Z,9.07
2018-07-16T23:11:30.597Z,12.83
2018-07-16T23:14:01.177Z,10.60
2018-07-16T23:16:31.507Z,8.80
2018-07-16T23:19:02.043Z,9.00
2018-07-16T23:21:32.599Z,10.37
2018-07-16T23:24:03.023Z,9.67
2018-07-16T23:26:33.518Z,9.93
2018-07-16T23:29:04.121Z,9.13
2018-07-16T23:31:34.683Z,12.70
2018-07-16T23:34:04.963Z,13.23
2018-07-16T23:36:35.427Z,11.07
2018-07-16T23:39:07.087Z,10.60
2018-07-16T23:41:37.407Z,10.27
2018-07-16T23:44:08.028Z,11.07
2018-07-16T23:46:38.376Z,10.37
2018-07-16T23:49:09.090Z,11.37
2018-07-16T23:51:39.463Z,11.40
2018-07-16T23:54:09.950Z,10.57
2018-07-16T23:56:40.501Z,11.53
2018-07-16T23:59:10.828Z,11.03
